sensor_id;sensor_type;location;lat;lon;timestamp;temperature;humidity
2973;DHT22;1496;51.404;7.232;2023-08-12T00:00:06;20.70;1.00
2973;DHT22;1496;51.404;7.232;2023-08-12T00:02:42;20.70;99.90
2973;DHT22;1496;51.404;7.232;2023-08-12T00:05:09;20.70;99.90
2973;DHT22;1496;51.404;7.232;2023-08-12T00:07:39;20.80;35.60
2973;DHT22;1496;51.404;7.232;2023-08-12T00:10:09;20.70;99.90
2973;DHT22;1496;51.404;7.232;2023-08-12T00:12:35;20.80;99.90
2973;DHT22;1496;51.404;7.232;2023-08-12T00:15:02;20.70;1.00
2973;DHT22;1496;51.404;7.232;2023-08-12T00:17:29;20.70;99.90
2973;DHT22;1496;51.404;7.232;2023-08-12T00:19:55;20.70;1.00
2973;DHT22;1496;51.404;7.232;2023-08-12T00:22:22;20.70;1.00
2973;DHT22;1496;51.404;7.232;2023-08-12T00:24:47;20.70;1.00
2973;DHT22;1496;51.404;7.232;2023-08-12T00:27:13;20.60;1.00
2973;DHT22;1496;51.404;7.232;2023-08-12T00:29:39;20.60;1.00
2973;DHT22;1496;51.404;7.232;2023-08-12T00:32:05;20.50;64.60
2973;DHT22;1496;51.404;7.232;2023-08-12T00:34:31;20.60;99.90
2973;DHT22;1496;51.404;7.232;2023-08-12T00:36:57;20.60;57.50
2973;DHT22;1496;51.404;7.232;2023-08-12T00:39:22;20.50;1.00
2973;DHT22;1496;51.404;7.232;2023-08-12T00:41:48;20.60;99.90
2973;DHT22;1496;51.404;7.232;2023-08-12T00:44:14;20.60;99.90
2973;DHT22;1496;51.404;7.232;2023-08-12T00:46:41;20.50;99.90
2973;DHT22;1496;51.404;7.232;2023-08-12T00:49:09;20.60;99.90
2973;DHT22;1496;51.404;7.232;2023-08-12T00:51:36;20.50;99.90
2973;DHT22;1496;51.404;7.232;2023-08-12T00:54:04;20.50;99.90
2973;DHT22;1496;51.404;7.232;2023-08-12T00:56:31;20.50;99.90
2973;DHT22;1496;51.404;7.232;2023-08-12T00:59:01;20.50;99.90
2973;DHT22;1496;51.404;7.232;2023-08-12T01:01:30;20.50;99.90
2973;DHT22;1496;51.404;7.232;2023-08-12T01:03:57;20.40;99.90
2973;DHT22;1496;51.404;7.232;2023-08-12T01:06:23;20.40;99.90
2973;DHT22;1496;51.404;7.232;2023-08-12T01:08:49;20.40;99.90
2973;DHT22;1496;51.404;7.232;2023-08-12T01:14:14;20.40;99.90
2973;DHT22;1496;51.404;7.232;2023-08-12T01:16:45;20.40;99.90
2973;DHT22;1496;51.404;7.232;2023-08-12T01:19:29;20.50;99.90
2973;DHT22;1496;51.404;7.232;2023-08-12T01:21:55;20.50;99.90
2973;DHT22;1496;51.404;7.232;2023-08-12T01:24:24;20.40;99.90
2973;DHT22;1496;51.404;7.232;2023-08-12T01:26:50;20.30;99.90
2973;DHT22;1496;51.404;7.232;2023-08-12T01:29:17;20.30;99.90
2973;DHT22;1496;51.404;7.232;2023-08-12T01:31:51;20.30;99.90
2973;DHT22;1496;51.404;7.232;2023-08-12T01:34:26;20.30;99.90
2973;DHT22;1496;51.404;7.232;2023-08-12T01:36:57;20.30;99.90
2973;DHT22;1496;51.404;7.232;2023-08-12T01:39:24;20.20;99.90
2973;DHT22;1496;51.404;7.232;2023-08-12T01:41:52;20.20;99.90
2973;DHT22;1496;51.404;7.232;2023-08-12T01:44:19;20.10;99.90
2973;DHT22;1496;51.404;7.232;2023-08-12T01:46:45;20.10;99.90
2973;DHT22;1496;51.404;7.232;2023-08-12T01:49:11;20.00;99.90
2973;DHT22;1496;51.404;7.232;2023-08-12T01:51:37;20.00;99.90
2973;DHT22;1496;51.404;7.232;2023-08-12T01:54:02;20.10;99.90
2973;DHT22;1496;51.404;7.232;2023-08-12T01:56:28;20.10;99.90
2973;DHT22;1496;51.404;7.232;2023-08-12T01:58:54;20.10;99.90
2973;DHT22;1496;51.404;7.232;2023-08-12T02:01:20;20.10;99.90
2973;DHT22;1496;51.404;7.232;2023-08-12T02:03:46;20.10;99.90
2973;DHT22;1496;51.404;7.232;2023-08-12T02:06:11;20.10;99.90
2973;DHT22;1496;51.404;7.232;2023-08-12T02:08:37;20.10;99.90
2973;DHT22;1496;51.404;7.232;2023-08-12T02:11:03;20.10;99.90
2973;DHT22;1496;51.404;7.232;2023-08-12T02:13:29;20.10;99.90
2973;DHT22;1496;51.404;7.232;2023-08-12T02:15:55;20.10;99.90
2973;DHT22;1496;51.404;7.232;2023-08-12T02:18:22;20.10;99.90
2973;DHT22;1496;51.404;7.232;2023-08-12T02:20:47;20.10;99.90
2973;DHT22;1496;51.404;7.232;2023-08-12T02:23:14;20.10;99.90
2973;DHT22;1496;51.404;7.232;2023-08-12T02:25:39;20.00;99.90
2973;DHT22;1496;51.404;7.232;2023-08-12T02:28:05;20.00;99.90
2973;DHT22;1496;51.404;7.232;2023-08-12T02:30:30;19.90;99.90
2973;DHT22;1496;51.404;7.232;2023-08-12T02:32:57;19.90;99.90
2973;DHT22;1496;51.404;7.232;2023-08-12T02:35:23;19.80;99.90
2973;DHT22;1496;51.404;7.232;2023-08-12T02:37:49;19.80;99.90
2973;DHT22;1496;51.404;7.232;2023-08-12T02:40:15;19.90;99.90
2973;DHT22;1496;51.404;7.232;2023-08-12T02:42:40;19.90;99.90
2973;DHT22;1496;51.404;7.232;2023-08-12T02:45:06;19.90;99.90
2973;DHT22;1496;51.404;7.232;2023-08-12T02:47:32;19.90;99.90
2973;DHT22;1496;51.404;7.232;2023-08-12T02:49:58;20.00;99.90
2973;DHT22;1496;51.404;7.232;2023-08-12T02:52:23;20.00;99.90
2973;DHT22;1496;51.404;7.232;2023-08-12T02:54:49;20.10;99.90
2973;DHT22;1496;51.404;7.232;2023-08-12T02:57:15;20.10;99.90
2973;DHT22;1496;51.404;7.232;2023-08-12T02:59:40;20.10;99.90
2973;DHT22;1496;51.404;7.232;2023-08-12T03:02:06;20.20;99.90
2973;DHT22;1496;51.404;7.232;2023-08-12T03:04:32;20.10;99.90
2973;DHT22;1496;51.404;7.232;2023-08-12T03:06:57;20.00;99.90
2973;DHT22;1496;51.404;7.232;2023-08-12T03:09:23;20.00;99.90
2973;DHT22;1496;51.404;7.232;2023-08-12T03:11:49;20.00;99.90
2973;DHT22;1496;51.404;7.232;2023-08-12T03:14:15;20.00;99.90
2973;DHT22;1496;51.404;7.232;2023-08-12T03:16:41;20.00;99.90
2973;DHT22;1496;51.404;7.232;2023-08-12T03:19:07;20.10;99.90
2973;DHT22;1496;51.404;7.232;2023-08-12T03:21:33;20.00;99.90
2973;DHT22;1496;51.404;7.232;2023-08-12T03:24:00;20.10;99.90
2973;DHT22;1496;51.404;7.232;2023-08-12T03:26:26;20.00;99.90
2973;DHT22;1496;51.404;7.232;2023-08-12T03:28:54;19.90;99.90
2973;DHT22;1496;51.404;7.232;2023-08-12T03:31:20;19.90;99.90
2973;DHT22;1496;51.404;7.232;2023-08-12T03:33:46;19.80;99.90
2973;DHT22;1496;51.404;7.232;2023-08-12T03:36:14;19.90;99.90
2973;DHT22;1496;51.404;7.232;2023-08-12T03:38:40;19.90;99.90
2973;DHT22;1496;51.404;7.232;2023-08-12T03:41:10;19.90;99.90
2973;DHT22;1496;51.404;7.232;2023-08-12T03:43:36;19.90;99.90
2973;DHT22;1496;51.404;7.232;2023-08-12T03:46:03;19.90;99.90
2973;DHT22;1496;51.404;7.232;2023-08-12T03:48:30;19.90;99.90
2973;DHT22;1496;51.404;7.232;2023-08-12T03:50:57;19.80;99.90
2973;DHT22;1496;51.404;7.232;2023-08-12T03:53:22;19.80;99.90
2973;DHT22;1496;51.404;7.232;2023-08-12T03:55:48;19.80;99.90
2973;DHT22;1496;51.404;7.232;2023-08-12T03:58:15;19.70;99.90
2973;DHT22;1496;51.404;7.232;2023-08-12T04:00:42;19.70;99.90
2973;DHT22;1496;51.404;7.232;2023-08-12T04:03:13;19.70;99.90
2973;DHT22;1496;51.404;7.232;2023-08-12T04:05:50;19.70;99.90
2973;DHT22;1496;51.404;7.232;2023-08-12T04:08:19;19.80;99.90
2973;DHT22;1496;51.404;7.232;2023-08-12T04:10:48;19.70;99.90
2973;DHT22;1496;51.404;7.232;2023-08-12T04:13:14;19.70;99.90
2973;DHT22;1496;51.404;7.232;2023-08-12T04:15:41;19.80;99.90
2973;DHT22;1496;51.404;7.232;2023-08-12T04:18:06;19.80;99.90
2973;DHT22;1496;51.404;7.232;2023-08-12T04:20:33;19.80;99.90
2973;DHT22;1496;51.404;7.232;2023-08-12T04:22:59;19.70;99.90
2973;DHT22;1496;51.404;7.232;2023-08-12T04:25:25;19.80;99.90
2973;DHT22;1496;51.404;7.232;2023-08-12T04:27:51;19.80;99.90
2973;DHT22;1496;51.404;7.232;2023-08-12T04:30:18;19.90;99.90
2973;DHT22;1496;51.404;7.232;2023-08-12T04:32:44;19.90;99.90
2973;DHT22;1496;51.404;7.232;2023-08-12T04:35:11;20.00;99.90
2973;DHT22;1496;51.404;7.232;2023-08-12T04:37:38;20.00;99.90
2973;DHT22;1496;51.404;7.232;2023-08-12T04:40:05;20.00;99.90
2973;DHT22;1496;51.404;7.232;2023-08-12T04:42:32;20.00;99.90
2973;DHT22;1496;51.404;7.232;2023-08-12T04:44:58;20.00;99.90
2973;DHT22;1496;51.404;7.232;2023-08-12T04:47:24;20.00;99.90
2973;DHT22;1496;51.404;7.232;2023-08-12T04:49:50;20.00;99.90
2973;DHT22;1496;51.404;7.232;2023-08-12T04:52:17;20.00;99.90
2973;DHT22;1496;51.404;7.232;2023-08-12T04:54:42;20.00;99.90
2973;DHT22;1496;51.404;7.232;2023-08-12T04:57:08;20.00;99.90
2973;DHT22;1496;51.404;7.232;2023-08-12T04:59:34;19.90;99.90
2973;DHT22;1496;51.404;7.232;2023-08-12T05:02:00;19.90;99.90
2973;DHT22;1496;51.404;7.232;2023-08-12T05:04:26;19.90;99.90
2973;DHT22;1496;51.404;7.232;2023-08-12T05:06:52;20.00;99.90
2973;DHT22;1496;51.404;7.232;2023-08-12T05:09:18;19.90;99.90
2973;DHT22;1496;51.404;7.232;2023-08-12T05:11:43;19.80;99.90
2973;DHT22;1496;51.404;7.232;2023-08-12T05:14:09;19.80;99.90
2973;DHT22;1496;51.404;7.232;2023-08-12T05:16:35;19.80;99.90
2973;DHT22;1496;51.404;7.232;2023-08-12T05:19:00;19.80;99.90
2973;DHT22;1496;51.404;7.232;2023-08-12T05:21:26;19.80;99.90
2973;DHT22;1496;51.404;7.232;2023-08-12T05:23:52;19.80;99.90
2973;DHT22;1496;51.404;7.232;2023-08-12T05:26:18;19.80;99.90
2973;DHT22;1496;51.404;7.232;2023-08-12T05:28:45;19.90;99.90
2973;DHT22;1496;51.404;7.232;2023-08-12T05:31:12;19.90;99.90
2973;DHT22;1496;51.404;7.232;2023-08-12T05:33:38;19.90;99.90
2973;DHT22;1496;51.404;7.232;2023-08-12T05:36:03;19.90;99.90
2973;DHT22;1496;51.404;7.232;2023-08-12T05:38:29;19.80;99.90
2973;DHT22;1496;51.404;7.232;2023-08-12T05:40:55;19.80;99.90
2973;DHT22;1496;51.404;7.232;2023-08-12T05:43:20;19.70;99.90
2973;DHT22;1496;51.404;7.232;2023-08-12T05:45:46;19.80;99.90
2973;DHT22;1496;51.404;7.232;2023-08-12T05:48:13;19.80;99.90
2973;DHT22;1496;51.404;7.232;2023-08-12T05:50:38;19.80;99.90
2973;DHT22;1496;51.404;7.232;2023-08-12T05:53:04;19.80;99.90
2973;DHT22;1496;51.404;7.232;2023-08-12T05:55:29;19.80;99.90
2973;DHT22;1496;51.404;7.232;2023-08-12T05:57:55;19.70;99.90
2973;DHT22;1496;51.404;7.232;2023-08-12T06:00:21;19.80;99.90
2973;DHT22;1496;51.404;7.232;2023-08-12T06:02:46;19.80;99.90
2973;DHT22;1496;51.404;7.232;2023-08-12T06:05:12;19.80;99.90
2973;DHT22;1496;51.404;7.232;2023-08-12T06:07:38;19.80;99.90
2973;DHT22;1496;51.404;7.232;2023-08-12T06:10:04;19.80;99.90
2973;DHT22;1496;51.404;7.232;2023-08-12T06:12:29;19.80;99.90
2973;DHT22;1496;51.404;7.232;2023-08-12T06:14:55;19.90;99.90
2973;DHT22;1496;51.404;7.232;2023-08-12T06:17:21;19.90;99.90
2973;DHT22;1496;51.404;7.232;2023-08-12T06:19:46;19.90;99.90
2973;DHT22;1496;51.404;7.232;2023-08-12T06:22:12;19.90;99.90
2973;DHT22;1496;51.404;7.232;2023-08-12T06:24:37;19.90;99.90
2973;DHT22;1496;51.404;7.232;2023-08-12T06:27:03;19.90;99.90
2973;DHT22;1496;51.404;7.232;2023-08-12T06:29:29;19.90;99.90
2973;DHT22;1496;51.404;7.232;2023-08-12T06:31:54;19.90;99.90
2973;DHT22;1496;51.404;7.232;2023-08-12T06:34:20;19.80;99.90
2973;DHT22;1496;51.404;7.232;2023-08-12T06:36:46;19.80;99.90
2973;DHT22;1496;51.404;7.232;2023-08-12T06:39:12;19.80;99.90
2973;DHT22;1496;51.404;7.232;2023-08-12T06:41:38;19.80;99.90
2973;DHT22;1496;51.404;7.232;2023-08-12T06:44:04;19.80;99.90
2973;DHT22;1496;51.404;7.232;2023-08-12T06:46:30;19.70;99.90
2973;DHT22;1496;51.404;7.232;2023-08-12T06:48:57;19.70;99.90
2973;DHT22;1496;51.404;7.232;2023-08-12T06:51:23;19.70;99.90
2973;DHT22;1496;51.404;7.232;2023-08-12T06:53:48;19.70;99.90
2973;DHT22;1496;51.404;7.232;2023-08-12T06:56:14;19.60;99.90
2973;DHT22;1496;51.404;7.232;2023-08-12T06:58:40;19.70;99.90
2973;DHT22;1496;51.404;7.232;2023-08-12T07:01:05;19.60;99.90
2973;DHT22;1496;51.404;7.232;2023-08-12T07:03:31;19.60;99.90
2973;DHT22;1496;51.404;7.232;2023-08-12T07:05:58;19.50;99.90
2973;DHT22;1496;51.404;7.232;2023-08-12T07:08:24;19.50;99.90
2973;DHT22;1496;51.404;7.232;2023-08-12T07:10:49;19.50;99.90
2973;DHT22;1496;51.404;7.232;2023-08-12T07:13:15;19.50;99.90
2973;DHT22;1496;51.404;7.232;2023-08-12T07:15:41;19.40;99.90
2973;DHT22;1496;51.404;7.232;2023-08-12T07:18:06;19.40;99.90
2973;DHT22;1496;51.404;7.232;2023-08-12T07:20:32;19.40;99.90
2973;DHT22;1496;51.404;7.232;2023-08-12T07:22:58;19.40;99.90
2973;DHT22;1496;51.404;7.232;2023-08-12T07:25:24;19.40;99.90
2973;DHT22;1496;51.404;7.232;2023-08-12T07:27:49;19.40;99.90
2973;DHT22;1496;51.404;7.232;2023-08-12T07:30:15;19.50;99.90
2973;DHT22;1496;51.404;7.232;2023-08-12T07:32:41;19.50;99.90
2973;DHT22;1496;51.404;7.232;2023-08-12T07:35:07;19.60;99.90
2973;DHT22;1496;51.404;7.232;2023-08-12T07:37:33;19.60;99.90
2973;DHT22;1496;51.404;7.232;2023-08-12T07:39:58;19.60;99.90
2973;DHT22;1496;51.404;7.232;2023-08-12T07:42:24;19.70;99.90
2973;DHT22;1496;51.404;7.232;2023-08-12T07:44:50;19.80;99.90
2973;DHT22;1496;51.404;7.232;2023-08-12T07:47:15;19.90;99.90
2973;DHT22;1496;51.404;7.232;2023-08-12T07:49:42;19.80;99.90
2973;DHT22;1496;51.404;7.232;2023-08-12T07:52:08;19.90;99.90
2973;DHT22;1496;51.404;7.232;2023-08-12T07:54:34;19.90;99.90
2973;DHT22;1496;51.404;7.232;2023-08-12T07:56:59;19.80;99.90
2973;DHT22;1496;51.404;7.232;2023-08-12T07:59:25;19.90;99.90
2973;DHT22;1496;51.404;7.232;2023-08-12T08:01:51;19.80;99.90
2973;DHT22;1496;51.404;7.232;2023-08-12T08:04:17;19.90;99.90
2973;DHT22;1496;51.404;7.232;2023-08-12T08:06:43;20.10;99.90
2973;DHT22;1496;51.404;7.232;2023-08-12T08:09:09;20.10;99.90
2973;DHT22;1496;51.404;7.232;2023-08-12T08:11:34;20.20;99.90
2973;DHT22;1496;51.404;7.232;2023-08-12T08:14:00;20.20;99.90
2973;DHT22;1496;51.404;7.232;2023-08-12T08:16:26;20.20;99.90
2973;DHT22;1496;51.404;7.232;2023-08-12T08:18:52;20.20;99.90
2973;DHT22;1496;51.404;7.232;2023-08-12T08:21:17;20.20;99.90
2973;DHT22;1496;51.404;7.232;2023-08-12T08:23:43;20.20;99.90
2973;DHT22;1496;51.404;7.232;2023-08-12T08:26:09;20.10;99.90
2973;DHT22;1496;51.404;7.232;2023-08-12T08:28:35;20.20;99.90
2973;DHT22;1496;51.404;7.232;2023-08-12T08:31:01;20.30;99.90
2973;DHT22;1496;51.404;7.232;2023-08-12T08:33:26;20.30;99.90
2973;DHT22;1496;51.404;7.232;2023-08-12T08:35:53;20.20;99.90
2973;DHT22;1496;51.404;7.232;2023-08-12T08:38:19;20.20;99.90
2973;DHT22;1496;51.404;7.232;2023-08-12T08:40:45;20.10;99.90
2973;DHT22;1496;51.404;7.232;2023-08-12T08:43:13;20.00;99.90
2973;DHT22;1496;51.404;7.232;2023-08-12T08:45:41;20.00;99.90
2973;DHT22;1496;51.404;7.232;2023-08-12T08:48:10;20.00;99.90
2973;DHT22;1496;51.404;7.232;2023-08-12T08:50:37;20.00;99.90
2973;DHT22;1496;51.404;7.232;2023-08-12T08:53:05;20.20;99.90
2973;DHT22;1496;51.404;7.232;2023-08-12T08:55:32;20.30;99.90
2973;DHT22;1496;51.404;7.232;2023-08-12T08:57:58;20.30;99.90
2973;DHT22;1496;51.404;7.232;2023-08-12T09:00:24;20.20;99.90
2973;DHT22;1496;51.404;7.232;2023-08-12T09:02:51;20.20;99.90
2973;DHT22;1496;51.404;7.232;2023-08-12T09:05:17;20.20;99.90
2973;DHT22;1496;51.404;7.232;2023-08-12T09:07:44;20.10;99.90
2973;DHT22;1496;51.404;7.232;2023-08-12T09:10:11;20.10;99.90
2973;DHT22;1496;51.404;7.232;2023-08-12T09:12:37;20.20;99.90
2973;DHT22;1496;51.404;7.232;2023-08-12T09:15:04;20.40;99.90
2973;DHT22;1496;51.404;7.232;2023-08-12T09:17:32;20.50;99.90
2973;DHT22;1496;51.404;7.232;2023-08-12T09:19:58;20.60;99.90
2973;DHT22;1496;51.404;7.232;2023-08-12T09:22:25;20.60;99.90
2973;DHT22;1496;51.404;7.232;2023-08-12T09:24:56;20.60;99.90
2973;DHT22;1496;51.404;7.232;2023-08-12T09:27:23;20.50;99.90
2973;DHT22;1496;51.404;7.232;2023-08-12T09:29:49;20.50;99.90
2973;DHT22;1496;51.404;7.232;2023-08-12T09:32:20;20.60;99.90
2973;DHT22;1496;51.404;7.232;2023-08-12T09:34:51;20.70;99.90
2973;DHT22;1496;51.404;7.232;2023-08-12T09:37:17;20.70;99.90
2973;DHT22;1496;51.404;7.232;2023-08-12T09:39:44;20.70;99.90
2973;DHT22;1496;51.404;7.232;2023-08-12T09:42:11;20.60;99.90
2973;DHT22;1496;51.404;7.232;2023-08-12T09:44:40;20.60;99.90
2973;DHT22;1496;51.404;7.232;2023-08-12T09:47:06;20.70;99.90
2973;DHT22;1496;51.404;7.232;2023-08-12T09:49:34;20.80;99.90
2973;DHT22;1496;51.404;7.232;2023-08-12T09:52:01;20.80;99.90
2973;DHT22;1496;51.404;7.232;2023-08-12T09:54:28;20.60;99.90
2973;DHT22;1496;51.404;7.232;2023-08-12T09:56:59;20.70;99.90
2973;DHT22;1496;51.404;7.232;2023-08-12T09:59:33;20.60;99.90
2973;DHT22;1496;51.404;7.232;2023-08-12T10:02:05;20.70;99.90
2973;DHT22;1496;51.404;7.232;2023-08-12T10:04:41;20.80;99.90
2973;DHT22;1496;51.404;7.232;2023-08-12T10:07:10;20.90;99.90
2973;DHT22;1496;51.404;7.232;2023-08-12T10:09:39;21.00;99.90
2973;DHT22;1496;51.404;7.232;2023-08-12T10:12:06;20.90;99.90
2973;DHT22;1496;51.404;7.232;2023-08-12T10:14:32;20.90;99.90
2973;DHT22;1496;51.404;7.232;2023-08-12T10:16:58;20.80;99.90
2973;DHT22;1496;51.404;7.232;2023-08-12T10:19:25;20.60;99.90
2973;DHT22;1496;51.404;7.232;2023-08-12T10:21:55;20.80;99.90
2973;DHT22;1496;51.404;7.232;2023-08-12T10:24:25;20.90;99.90
2973;DHT22;1496;51.404;7.232;2023-08-12T10:26:53;21.30;99.90
2973;DHT22;1496;51.404;7.232;2023-08-12T10:29:20;21.20;99.90
2973;DHT22;1496;51.404;7.232;2023-08-12T10:31:49;21.40;99.90
2973;DHT22;1496;51.404;7.232;2023-08-12T10:34:22;21.30;99.90
2973;DHT22;1496;51.404;7.232;2023-08-12T10:36:54;21.30;99.90
2973;DHT22;1496;51.404;7.232;2023-08-12T10:39:24;21.40;99.90
2973;DHT22;1496;51.404;7.232;2023-08-12T10:41:50;21.50;99.90
2973;DHT22;1496;51.404;7.232;2023-08-12T10:44:20;21.50;99.90
2973;DHT22;1496;51.404;7.232;2023-08-12T10:46:51;21.60;99.90
2973;DHT22;1496;51.404;7.232;2023-08-12T10:49:19;21.60;99.90
2973;DHT22;1496;51.404;7.232;2023-08-12T10:51:54;21.90;99.90
2973;DHT22;1496;51.404;7.232;2023-08-12T10:54:25;22.20;99.90
2973;DHT22;1496;51.404;7.232;2023-08-12T10:59:53;22.70;99.90
2973;DHT22;1496;51.404;7.232;2023-08-12T11:02:29;22.70;99.90
2973;DHT22;1496;51.404;7.232;2023-08-12T11:05:01;22.90;99.90
2973;DHT22;1496;51.404;7.232;2023-08-12T11:10:14;22.70;99.90
2973;DHT22;1496;51.404;7.232;2023-08-12T11:12:46;22.70;99.90
2973;DHT22;1496;51.404;7.232;2023-08-12T11:15:12;22.60;99.90
2973;DHT22;1496;51.404;7.232;2023-08-12T11:17:42;22.50;99.90
2973;DHT22;1496;51.404;7.232;2023-08-12T11:20:09;22.20;99.90
2973;DHT22;1496;51.404;7.232;2023-08-12T11:22:37;22.10;99.90
2973;DHT22;1496;51.404;7.232;2023-08-12T11:25:05;21.80;99.90
2973;DHT22;1496;51.404;7.232;2023-08-12T11:27:52;21.70;99.90
2973;DHT22;1496;51.404;7.232;2023-08-12T11:30:19;21.50;99.90
2973;DHT22;1496;51.404;7.232;2023-08-12T11:32:47;21.40;99.90
2973;DHT22;1496;51.404;7.232;2023-08-12T11:35:14;21.20;99.90
2973;DHT22;1496;51.404;7.232;2023-08-12T11:37:42;21.10;99.90
2973;DHT22;1496;51.404;7.232;2023-08-12T11:40:09;20.90;99.90
2973;DHT22;1496;51.404;7.232;2023-08-12T11:42:36;20.80;99.90
2973;DHT22;1496;51.404;7.232;2023-08-12T11:45:03;20.80;99.90
2973;DHT22;1496;51.404;7.232;2023-08-12T11:47:29;20.80;99.90
2973;DHT22;1496;51.404;7.232;2023-08-12T11:49:54;20.70;99.90
2973;DHT22;1496;51.404;7.232;2023-08-12T11:52:20;20.70;99.90
2973;DHT22;1496;51.404;7.232;2023-08-12T11:54:47;20.70;99.90
2973;DHT22;1496;51.404;7.232;2023-08-12T11:57:13;20.80;99.90
2973;DHT22;1496;51.404;7.232;2023-08-12T11:59:38;20.80;99.90
2973;DHT22;1496;51.404;7.232;2023-08-12T12:02:04;21.00;99.90
2973;DHT22;1496;51.404;7.232;2023-08-12T12:04:34;21.00;99.90
2973;DHT22;1496;51.404;7.232;2023-08-12T12:07:00;21.10;99.90
2973;DHT22;1496;51.404;7.232;2023-08-12T12:09:34;21.00;99.90
2973;DHT22;1496;51.404;7.232;2023-08-12T12:12:00;21.00;99.90
2973;DHT22;1496;51.404;7.232;2023-08-12T12:14:25;20.90;99.90
2973;DHT22;1496;51.404;7.232;2023-08-12T12:16:51;21.10;99.90
2973;DHT22;1496;51.404;7.232;2023-08-12T12:21:46;21.10;99.90
2973;DHT22;1496;51.404;7.232;2023-08-12T12:24:12;21.40;99.90
2973;DHT22;1496;51.404;7.232;2023-08-12T12:26:38;21.60;99.90
2973;DHT22;1496;51.404;7.232;2023-08-12T12:29:04;21.80;99.90
2973;DHT22;1496;51.404;7.232;2023-08-12T12:31:35;21.80;99.90
2973;DHT22;1496;51.404;7.232;2023-08-12T12:34:05;21.80;99.90
2973;DHT22;1496;51.404;7.232;2023-08-12T12:36:34;22.00;99.90
2973;DHT22;1496;51.404;7.232;2023-08-12T12:39:01;22.10;99.90
2973;DHT22;1496;51.404;7.232;2023-08-12T12:41:27;22.20;99.90
2973;DHT22;1496;51.404;7.232;2023-08-12T12:43:53;22.50;99.90
2973;DHT22;1496;51.404;7.232;2023-08-12T12:46:18;22.60;99.90
2973;DHT22;1496;51.404;7.232;2023-08-12T12:48:44;22.50;99.90
2973;DHT22;1496;51.404;7.232;2023-08-12T12:51:11;22.70;99.90
2973;DHT22;1496;51.404;7.232;2023-08-12T12:53:37;22.50;99.90
2973;DHT22;1496;51.404;7.232;2023-08-12T12:56:03;22.70;99.90
2973;DHT22;1496;51.404;7.232;2023-08-12T12:58:33;23.00;99.90
2973;DHT22;1496;51.404;7.232;2023-08-12T13:01:00;22.50;99.90
2973;DHT22;1496;51.404;7.232;2023-08-12T13:03:25;22.40;99.90
2973;DHT22;1496;51.404;7.232;2023-08-12T13:05:51;22.00;99.90
2973;DHT22;1496;51.404;7.232;2023-08-12T13:08:17;21.30;99.90
2973;DHT22;1496;51.404;7.232;2023-08-12T13:10:43;20.90;99.90
2973;DHT22;1496;51.404;7.232;2023-08-12T13:13:09;20.80;99.90
2973;DHT22;1496;51.404;7.232;2023-08-12T13:15:35;20.70;99.90
2973;DHT22;1496;51.404;7.232;2023-08-12T13:18:01;20.50;99.90
2973;DHT22;1496;51.404;7.232;2023-08-12T13:20:26;20.50;99.90
2973;DHT22;1496;51.404;7.232;2023-08-12T13:22:52;20.50;99.90
2973;DHT22;1496;51.404;7.232;2023-08-12T13:25:18;20.40;99.90
2973;DHT22;1496;51.404;7.232;2023-08-12T13:27:43;20.30;99.90
2973;DHT22;1496;51.404;7.232;2023-08-12T13:30:09;20.20;99.90
2973;DHT22;1496;51.404;7.232;2023-08-12T13:32:37;20.20;99.90
2973;DHT22;1496;51.404;7.232;2023-08-12T13:35:03;20.20;99.90
2973;DHT22;1496;51.404;7.232;2023-08-12T13:37:29;20.20;99.90
2973;DHT22;1496;51.404;7.232;2023-08-12T13:39:55;20.20;99.90
2973;DHT22;1496;51.404;7.232;2023-08-12T13:42:20;20.30;99.90
2973;DHT22;1496;51.404;7.232;2023-08-12T13:44:46;20.40;99.90
2973;DHT22;1496;51.404;7.232;2023-08-12T13:47:12;20.40;99.90
2973;DHT22;1496;51.404;7.232;2023-08-12T13:49:37;20.50;99.90
2973;DHT22;1496;51.404;7.232;2023-08-12T13:52:03;20.70;99.90
2973;DHT22;1496;51.404;7.232;2023-08-12T13:54:29;20.50;99.90
2973;DHT22;1496;51.404;7.232;2023-08-12T13:56:55;20.50;99.90
2973;DHT22;1496;51.404;7.232;2023-08-12T13:59:20;20.50;99.90
2973;DHT22;1496;51.404;7.232;2023-08-12T14:01:46;20.50;99.90
2973;DHT22;1496;51.404;7.232;2023-08-12T14:04:12;20.50;99.90
2973;DHT22;1496;51.404;7.232;2023-08-12T14:06:37;20.60;99.90
2973;DHT22;1496;51.404;7.232;2023-08-12T14:09:03;20.70;99.90
2973;DHT22;1496;51.404;7.232;2023-08-12T14:11:29;20.60;99.90
2973;DHT22;1496;51.404;7.232;2023-08-12T14:13:57;20.60;99.90
2973;DHT22;1496;51.404;7.232;2023-08-12T14:16:22;20.60;99.90
2973;DHT22;1496;51.404;7.232;2023-08-12T14:18:48;20.60;99.90
2973;DHT22;1496;51.404;7.232;2023-08-12T14:21:14;20.50;99.90
2973;DHT22;1496;51.404;7.232;2023-08-12T14:23:39;20.60;99.90
2973;DHT22;1496;51.404;7.232;2023-08-12T14:26:05;20.60;99.90
2973;DHT22;1496;51.404;7.232;2023-08-12T14:28:31;20.50;99.90
2973;DHT22;1496;51.404;7.232;2023-08-12T14:30:57;20.40;99.90
2973;DHT22;1496;51.404;7.232;2023-08-12T14:33:23;20.50;99.90
2973;DHT22;1496;51.404;7.232;2023-08-12T14:35:51;20.80;99.90
2973;DHT22;1496;51.404;7.232;2023-08-12T14:38:18;20.80;99.90
2973;DHT22;1496;51.404;7.232;2023-08-12T14:40:48;20.80;99.90
2973;DHT22;1496;51.404;7.232;2023-08-12T14:43:14;20.80;99.90
2973;DHT22;1496;51.404;7.232;2023-08-12T14:45:39;20.90;99.90
2973;DHT22;1496;51.404;7.232;2023-08-12T14:48:05;20.90;99.90
2973;DHT22;1496;51.404;7.232;2023-08-12T14:50:31;21.00;99.90
2973;DHT22;1496;51.404;7.232;2023-08-12T14:52:56;21.20;99.90
2973;DHT22;1496;51.404;7.232;2023-08-12T14:55:22;21.30;99.90
2973;DHT22;1496;51.404;7.232;2023-08-12T14:57:48;21.30;99.90
2973;DHT22;1496;51.404;7.232;2023-08-12T15:00:13;21.30;99.90
2973;DHT22;1496;51.404;7.232;2023-08-12T15:02:40;21.40;99.90
2973;DHT22;1496;51.404;7.232;2023-08-12T15:05:05;21.50;99.90
2973;DHT22;1496;51.404;7.232;2023-08-12T15:07:32;21.50;99.90
2973;DHT22;1496;51.404;7.232;2023-08-12T15:09:58;21.40;99.90
2973;DHT22;1496;51.404;7.232;2023-08-12T15:12:25;21.40;99.90
2973;DHT22;1496;51.404;7.232;2023-08-12T15:14:53;21.30;99.90
2973;DHT22;1496;51.404;7.232;2023-08-12T15:17:18;21.20;99.90
2973;DHT22;1496;51.404;7.232;2023-08-12T15:19:44;21.30;99.90
2973;DHT22;1496;51.404;7.232;2023-08-12T15:22:10;21.20;99.90
2973;DHT22;1496;51.404;7.232;2023-08-12T15:24:36;21.40;99.90
2973;DHT22;1496;51.404;7.232;2023-08-12T15:27:03;21.60;99.90
2973;DHT22;1496;51.404;7.232;2023-08-12T15:29:29;21.70;99.90
2973;DHT22;1496;51.404;7.232;2023-08-12T15:31:54;21.80;99.90
2973;DHT22;1496;51.404;7.232;2023-08-12T15:34:21;21.90;99.90
2973;DHT22;1496;51.404;7.232;2023-08-12T15:36:47;21.80;99.90
2973;DHT22;1496;51.404;7.232;2023-08-12T15:39:13;21.80;99.90
2973;DHT22;1496;51.404;7.232;2023-08-12T15:41:41;21.80;99.90
2973;DHT22;1496;51.404;7.232;2023-08-12T15:44:08;21.90;99.90
2973;DHT22;1496;51.404;7.232;2023-08-12T15:46:33;21.80;99.90
2973;DHT22;1496;51.404;7.232;2023-08-12T15:48:59;21.80;99.90
2973;DHT22;1496;51.404;7.232;2023-08-12T15:51:25;21.80;99.90
2973;DHT22;1496;51.404;7.232;2023-08-12T15:53:50;21.90;99.90
2973;DHT22;1496;51.404;7.232;2023-08-12T15:56:16;21.80;99.90
2973;DHT22;1496;51.404;7.232;2023-08-12T15:58:41;21.80;99.90
2973;DHT22;1496;51.404;7.232;2023-08-12T16:01:07;21.60;99.90
2973;DHT22;1496;51.404;7.232;2023-08-12T16:03:33;21.70;99.90
2973;DHT22;1496;51.404;7.232;2023-08-12T16:05:59;21.70;99.90
2973;DHT22;1496;51.404;7.232;2023-08-12T16:08:25;21.80;99.90